Time;durP1;ratioP1;P1;durP2;ratioP2;P2;SDS_P1;SDS_P2;PMS_P1;PMS_P2;Temp;Humidity;BMP_temperature;BMP_pressure;BME280_temperature;BME280_humidity;BME280_pressure;Samples;Min_cycle;Max_cycle;Signal;HPM_P1;HPM_P2
2023/06/26 00:00:23;;;;;;;;;;;;;;;23.70;61.78;101137.47;4985766;28;4032;-65
2023/06/26 00:02:50;;;;;;;;;;;;;;;23.69;61.78;101138.16;4989017;28;4123;-65
2023/06/26 00:05:16;;;;;;;;;;;;;;;23.69;61.60;101143.94;4983436;28;4454;-65
2023/06/26 00:07:43;;;;;;;;;;;;;;;23.68;61.67;101143.19;4991128;28;3941;-66
2023/06/26 00:10:09;;;;;;;;;;;;;;;23.67;61.80;101133.03;4990154;28;4295;-65
2023/06/26 00:12:35;;;;;;;;;;;;;;;23.69;62.03;101132.38;4988986;28;4172;-64
2023/06/26 00:15:02;;;;;;;;;;;;;;;23.69;61.90;101133.13;4987702;28;4141;-66
2023/06/26 00:17:28;;;;;;;;;;;;;;;23.67;61.76;101141.72;4989929;28;4295;-65
2023/06/26 00:19:55;;;;;;;;;;;;;;;23.67;61.73;101140.97;4988019;28;4410;-65
2023/06/26 00:22:21;;;;;;;;;;;;;;;23.67;61.83;101133.03;4988067;28;4152;-66
2023/06/26 00:24:48;;;;;;;;;;;;;;;23.68;61.96;101136.66;4988524;28;4051;-66
2023/06/26 00:27:14;;;;;;;;;;;;;;;23.66;61.73;101133.69;4987752;28;4214;-66
2023/06/26 00:29:42;;;;;;;;;;;;;;;23.64;61.77;101137.28;4985350;28;4207;-66
2023/06/26 00:32:08;;;;;;;;;;;;;;;23.62;61.76;101129.25;4988802;28;6395;-66
2023/06/26 00:34:35;;;;;;;;;;;;;;;23.62;61.63;101131.41;4987862;28;4187;-66
2023/06/26 00:37:01;;;;;;;;;;;;;;;23.62;61.67;101128.53;4987458;28;4276;-65
2023/06/26 00:39:29;;;;;;;;;;;;;;;23.61;61.57;101132.81;4984329;28;4309;-66
2023/06/26 00:41:56;;;;;;;;;;;;;;;23.59;61.45;101130.59;4989616;28;4158;-66
2023/06/26 00:44:22;;;;;;;;;;;;;;;23.61;61.42;101138.59;5004897;28;4487;-66
2023/06/26 00:46:49;;;;;;;;;;;;;;;23.59;61.37;101132.72;4992460;28;4277;-66
2023/06/26 00:49:16;;;;;;;;;;;;;;;23.59;61.57;101119.03;5006532;28;4043;-66
2023/06/26 00:51:43;;;;;;;;;;;;;;;23.58;61.35;101120.44;4980122;28;4043;-65
2023/06/26 00:54:09;;;;;;;;;;;;;;;23.58;61.49;101120.44;4985919;28;4152;-66
2023/06/26 00:56:36;;;;;;;;;;;;;;;23.58;61.40;101128.38;4988943;28;4226;-66
2023/06/26 00:59:04;;;;;;;;;;;;;;;23.58;61.65;101122.59;4984422;28;4190;-65
2023/06/26 01:01:30;;;;;;;;;;;;;;;23.57;61.36;101123.97;5002130;28;4138;-66
2023/06/26 01:03:58;;;;;;;;;;;;;;;23.56;61.38;101120.34;4985953;28;4105;-65
2023/06/26 01:06:24;;;;;;;;;;;;;;;23.54;61.56;101120.28;4984737;28;4543;-66
2023/06/26 01:08:51;;;;;;;;;;;;;;;23.53;61.48;101109.41;4985026;28;4088;-68
2023/06/26 01:11:17;;;;;;;;;;;;;;;23.53;61.49;101104.34;4978363;28;4085;-66
2023/06/26 01:13:44;;;;;;;;;;;;;;;23.53;61.38;101106.50;4986682;28;4020;-66
2023/06/26 01:16:10;;;;;;;;;;;;;;;23.53;61.48;101103.63;5002025;28;4863;-65
2023/06/26 01:18:42;;;;;;;;;;;;;;;23.52;61.34;101099.22;4987065;28;4059;-66
2023/06/26 01:21:09;;;;;;;;;;;;;;;23.52;61.30;101099.97;4985947;28;4333;-65
2023/06/26 01:23:38;;;;;;;;;;;;;;;23.53;61.33;101097.84;5000894;28;4131;-66
2023/06/26 01:26:05;;;;;;;;;;;;;;;23.52;61.44;101085.50;4986439;28;4160;-65
2023/06/26 01:28:31;;;;;;;;;;;;;;;23.51;61.56;101094.88;4985261;28;4175;-66
2023/06/26 01:30:58;;;;;;;;;;;;;;;23.51;61.80;101095.59;4984438;28;4122;-65
2023/06/26 01:33:24;;;;;;;;;;;;;;;23.51;61.64;101083.31;5001891;28;4399;-66
2023/06/26 01:35:50;;;;;;;;;;;;;;;23.49;61.49;101083.97;4985525;28;3985;-66
2023/06/26 01:38:17;;;;;;;;;;;;;;;23.50;61.47;101084.69;4983923;28;4034;-66
2023/06/26 01:40:44;;;;;;;;;;;;;;;23.49;61.42;101083.22;5001218;28;4128;-65
2023/06/26 01:43:29;;;;;;;;;;;;;;;23.49;61.56;101081.06;5001410;28;4601;-65
2023/06/26 01:46:00;;;;;;;;;;;;;;;23.49;61.62;101080.34;4988558;28;4271;-66
2023/06/26 01:48:27;;;;;;;;;;;;;;;23.47;61.31;101078.09;4997441;28;4486;-66
2023/06/26 01:50:54;;;;;;;;;;;;;;;23.48;61.64;101084.63;4992325;28;4308;-66
2023/06/26 01:53:21;;;;;;;;;;;;;;;23.47;61.55;101077.38;4997255;28;4443;-66
2023/06/26 01:55:51;;;;;;;;;;;;;;;23.46;61.35;101076.63;5000316;28;4013;-66
2023/06/26 01:58:18;;;;;;;;;;;;;;;23.46;61.51;101070.13;4947150;28;1059073;-65
2023/06/26 02:00:45;;;;;;;;;;;;;;;23.45;61.52;101063.56;4997264;28;4216;-65
2023/06/26 02:03:11;;;;;;;;;;;;;;;23.46;61.49;101064.34;4981937;28;4110;-65
2023/06/26 02:05:38;;;;;;;;;;;;;;;23.45;61.38;101069.34;4984872;28;4067;-65
2023/06/26 02:08:04;;;;;;;;;;;;;;;23.45;61.36;101062.84;4983880;28;4573;-65
2023/06/26 02:10:31;;;;;;;;;;;;;;;23.44;61.50;101061.38;4985160;28;4133;-65
2023/06/26 02:12:57;;;;;;;;;;;;;;;23.42;61.48;101059.88;4984852;28;4154;-64
2023/06/26 02:15:24;;;;;;;;;;;;;;;23.41;61.59;101064.19;5001993;28;4213;-65
2023/06/26 02:17:51;;;;;;;;;;;;;;;23.41;61.40;101069.97;4996353;28;4235;-65
2023/06/26 02:20:17;;;;;;;;;;;;;;;23.41;61.48;101058.41;4989358;28;4140;-65
2023/06/26 02:22:44;;;;;;;;;;;;;;;23.40;61.27;101059.78;4983096;28;4177;-65
2023/06/26 02:25:12;;;;;;;;;;;;;;;23.38;61.31;101059.72;4993400;28;4081;-64
2023/06/26 02:27:38;;;;;;;;;;;;;;;23.38;61.11;101058.97;4984632;28;4067;-65
2023/06/26 02:30:05;;;;;;;;;;;;;;;23.38;61.16;101059.72;4983720;28;4166;-65
2023/06/26 02:32:31;;;;;;;;;;;;;;;23.35;61.09;101060.31;4991502;28;4171;-65
2023/06/26 02:34:58;;;;;;;;;;;;;;;23.35;61.18;101060.31;4993736;28;4142;-65
2023/06/26 02:37:24;;;;;;;;;;;;;;;23.36;61.12;101056.00;5002888;28;4151;-65
2023/06/26 02:39:51;;;;;;;;;;;;;;;23.34;61.11;101062.47;4983988;28;3970;-64
2023/06/26 02:42:18;;;;;;;;;;;;;;;23.32;61.29;101050.06;4984444;28;4339;-66
2023/06/26 02:44:44;;;;;;;;;;;;;;;23.33;61.15;101052.31;4983651;28;4127;-66
2023/06/26 02:47:11;;;;;;;;;;;;;;;23.33;61.11;101052.31;4996464;28;4127;-66
2023/06/26 02:49:41;;;;;;;;;;;;;;;23.33;61.33;101045.78;4998384;28;4468;-66
2023/06/26 02:52:07;;;;;;;;;;;;;;;23.34;61.28;101044.38;4997343;28;4284;-66
2023/06/26 02:54:34;;;;;;;;;;;;;;;23.33;61.19;101051.56;5000063;28;4197;-66
2023/06/26 02:57:03;;;;;;;;;;;;;;;23.31;61.16;101046.44;4981403;28;4165;-66
2023/06/26 02:59:31;;;;;;;;;;;;;;;23.31;61.15;101048.59;5000163;28;4264;-66
2023/06/26 03:01:58;;;;;;;;;;;;;;;23.30;61.38;101047.88;4983212;28;4190;-66
2023/06/26 03:04:30;;;;;;;;;;;;;;;23.30;61.48;101041.34;4998204;28;4379;-66
2023/06/26 03:06:57;;;;;;;;;;;;;;;23.29;61.72;101040.59;4977502;28;4532;-66
2023/06/26 03:09:24;;;;;;;;;;;;;;;23.31;61.54;101043.56;4975794;28;4194;-66
2023/06/26 03:11:52;;;;;;;;;;;;;;;23.31;61.90;101037.78;4979934;28;4144;-66
2023/06/26 03:14:20;;;;;;;;;;;;;;;23.30;61.87;101036.31;4981437;28;4303;-66
2023/06/26 03:16:46;;;;;;;;;;;;;;;23.31;61.87;101031.28;4995379;28;4262;-66
2023/06/26 03:19:12;;;;;;;;;;;;;;;23.30;61.83;101030.53;4994500;28;4239;-66
2023/06/26 03:21:59;;;;;;;;;;;;;;;23.30;61.96;101035.56;4981084;28;4252;-65
2023/06/26 03:24:25;;;;;;;;;;;;;;;23.30;61.82;101030.53;5000012;28;4218;-66
2023/06/26 03:26:52;;;;;;;;;;;;;;;23.34;61.83;101033.59;4985297;28;4166;-65
2023/06/26 03:29:18;;;;;;;;;;;;;;;23.31;61.99;101025.50;4995848;28;4071;-66
2023/06/26 03:31:45;;;;;;;;;;;;;;;23.25;62.56;101028.91;5000521;28;4087;-66
2023/06/26 03:34:12;;;;;;;;;;;;;;;23.26;62.82;101029.63;4998990;28;4211;-66
2023/06/26 03:36:38;;;;;;;;;;;;;;;23.22;62.65;101024.44;4986607;28;4136;-66
2023/06/26 03:39:05;;;;;;;;;;;;;;;23.23;62.71;101022.28;5000566;28;4147;-66
2023/06/26 03:41:31;;;;;;;;;;;;;;;23.21;62.86;101020.09;5000965;28;4317;-66
2023/06/26 03:44:00;;;;;;;;;;;;;;;23.22;62.91;101024.44;4986738;28;4151;-66
2023/06/26 03:46:32;;;;;;;;;;;;;;;23.20;63.00;101015.69;4985100;28;4208;-66
2023/06/26 03:48:58;;;;;;;;;;;;;;;23.23;62.88;101019.41;4984847;28;4117;-66
2023/06/26 03:51:25;;;;;;;;;;;;;;;23.20;62.93;101018.59;4984933;28;4022;-66
2023/06/26 03:53:53;;;;;;;;;;;;;;;23.20;63.23;101015.69;4970978;28;4442;-66
2023/06/26 03:56:19;;;;;;;;;;;;;;;23.20;63.35;101024.38;4992950;28;4034;-66
2023/06/26 03:58:47;;;;;;;;;;;;;;;23.16;63.25;101019.19;5004336;28;4203;-66
2023/06/26 04:01:14;;;;;;;;;;;;;;;23.14;63.31;101018.38;4984556;28;4352;-66
2023/06/26 04:03:42;;;;;;;;;;;;;;;23.16;63.42;101021.34;4983970;28;4102;-66
2023/06/26 04:06:10;;;;;;;;;;;;;;;23.15;63.74;101019.84;4985747;28;4300;-66
2023/06/26 04:08:37;;;;;;;;;;;;;;;23.14;63.47;101019.13;4990264;28;4336;-66
2023/06/26 04:11:04;;;;;;;;;;;;;;;23.15;63.47;101014.81;5000086;28;4514;-66
2023/06/26 04:13:31;;;;;;;;;;;;;;;23.16;63.57;101016.31;4988014;28;4393;-66
2023/06/26 04:15:57;;;;;;;;;;;;;;;23.16;63.76;101009.78;4987515;28;4448;-64
2023/06/26 04:18:24;;;;;;;;;;;;;;;23.16;63.99;101010.53;4985681;28;3952;-66
2023/06/26 04:21:09;;;;;;;;;;;;;;;23.19;64.07;101011.34;4985737;28;4301;-66
2023/06/26 04:23:35;;;;;;;;;;;;;;;23.17;63.94;101005.47;4986492;28;4053;-66
2023/06/26 04:26:02;;;;;;;;;;;;;;;23.17;64.10;101000.44;4987951;28;4290;-65
2023/06/26 04:28:29;;;;;;;;;;;;;;;23.17;64.34;101005.47;4987068;28;3995;-65
2023/06/26 04:30:55;;;;;;;;;;;;;;;23.15;64.28;101008.28;4986081;28;4128;-66
2023/06/26 04:33:23;;;;;;;;;;;;;;;23.20;64.11;101004.16;4986910;28;4141;-64
2023/06/26 04:35:49;;;;;;;;;;;;;;;23.22;64.38;101007.09;4986879;28;4289;-64
2023/06/26 04:38:16;;;;;;;;;;;;;;;23.24;64.35;101000.69;4984543;28;4324;-66
2023/06/26 04:40:42;;;;;;;;;;;;;;;23.27;64.42;101002.22;4990855;28;4152;-66
2023/06/26 04:43:08;;;;;;;;;;;;;;;23.28;64.65;101004.44;4985958;28;3917;-66
2023/06/26 04:45:35;;;;;;;;;;;;;;;23.27;64.31;101011.63;4982085;28;4087;-66
2023/06/26 04:48:01;;;;;;;;;;;;;;;23.28;64.38;101007.34;4980894;28;4148;-66
2023/06/26 04:50:28;;;;;;;;;;;;;;;23.29;64.22;101005.91;4989704;28;4141;-66
2023/06/26 04:52:55;;;;;;;;;;;;;;;23.29;64.49;100999.41;4989571;28;4154;-66
2023/06/26 04:55:23;;;;;;;;;;;;;;;23.30;64.55;100995.13;4995758;28;4028;-66
2023/06/26 04:57:50;;;;;;;;;;;;;;;23.29;64.59;101000.16;4990296;28;4154;-65
2023/06/26 05:00:16;;;;;;;;;;;;;;;23.28;64.91;100995.78;4988059;28;4122;-65
2023/06/26 05:02:43;;;;;;;;;;;;;;;23.27;64.68;100991.41;4992399;28;4107;-65
2023/06/26 05:05:10;;;;;;;;;;;;;;;23.27;64.78;100990.66;4987782;28;4055;-65
2023/06/26 05:07:37;;;;;;;;;;;;;;;21.86;70.92;100991.63;4987477;28;4020;-65
2023/06/26 05:10:03;;;;;;;;;;;;;;;21.10;74.96;100999.81;4994797;28;4087;-64
2023/06/26 05:12:30;;;;;;;;;;;;;;;20.85;77.13;100992.94;4993385;28;3928;-63
2023/06/26 05:14:56;;;;;;;;;;;;;;;20.79;77.56;100989.03;4985370;28;4030;-63
2023/06/26 05:17:23;;;;;;;;;;;;;;;20.74;77.25;100999.59;4989402;28;3874;-63
2023/06/26 05:19:49;;;;;;;;;;;;;;;20.85;76.22;100992.94;5004048;28;4169;-64
2023/06/26 05:22:16;;;;;;;;;;;;;;;21.10;75.64;100994.78;4985663;28;3956;-63
2023/06/26 05:24:43;;;;;;;;;;;;;;;21.53;73.55;100987.31;4984467;28;4004;-64
2023/06/26 05:27:09;;;;;;;;;;;;;;;21.77;72.10;100981.16;4991724;28;4155;-63
2023/06/26 05:29:36;;;;;;;;;;;;;;;22.13;70.84;100987.69;4986345;28;4212;-66
2023/06/26 05:32:04;;;;;;;;;;;;;;;22.49;69.01;100985.56;4990084;28;4159;-68
2023/06/26 05:34:32;;;;;;;;;;;;;;;22.69;68.28;100973.34;4987490;28;4195;-66
2023/06/26 05:36:59;;;;;;;;;;;;;;;22.82;67.77;100983.94;4999991;28;4746;-65
2023/06/26 05:39:25;;;;;;;;;;;;;;;22.91;67.14;100973.44;4991700;28;4231;-66
2023/06/26 05:41:51;;;;;;;;;;;;;;;22.97;66.98;100977.28;4990102;28;4157;-66
2023/06/26 05:44:18;;;;;;;;;;;;;;;23.03;66.52;100967.41;4989167;28;3970;-65
2023/06/26 05:46:45;;;;;;;;;;;;;;;23.06;66.42;100968.97;4990616;28;4102;-66
2023/06/26 05:49:11;;;;;;;;;;;;;;;23.09;66.25;100964.72;4985439;28;4516;-65
2023/06/26 05:51:40;;;;;;;;;;;;;;;23.11;66.13;100964.81;4988383;28;4199;-66
2023/06/26 05:54:07;;;;;;;;;;;;;;;23.12;65.90;100958.38;4992232;28;4111;-66
2023/06/26 05:56:33;;;;;;;;;;;;;;;23.14;65.80;100954.84;4986529;28;4165;-66
2023/06/26 05:58:59;;;;;;;;;;;;;;;23.14;65.88;100949.78;4987301;28;4246;-65
2023/06/26 06:01:26;;;;;;;;;;;;;;;23.12;65.64;100949.72;5002736;28;4118;-71
2023/06/26 06:03:52;;;;;;;;;;;;;;;23.22;66.06;100952.22;4987836;28;4186;-74
2023/06/26 06:06:19;;;;;;;;;;;;;;;23.36;70.00;100941.16;4985256;28;4046;-70
2023/06/26 06:08:45;;;;;;;;;;;;;;;23.22;67.40;100940.66;4986928;28;4032;-68
2023/06/26 06:11:15;;;;;;;;;;;;;;;23.24;67.27;100946.53;4992002;28;4019;-69
2023/06/26 06:13:41;;;;;;;;;;;;;;;23.22;67.00;100943.56;4992014;28;4340;-73
2023/06/26 06:16:08;;;;;;;;;;;;;;;23.26;67.67;100949.47;4994121;28;4023;-72
2023/06/26 06:18:34;;;;;;;;;;;;;;;23.15;67.25;100947.63;4993860;28;4159;-73
2023/06/26 06:21:01;;;;;;;;;;;;;;;23.20;68.85;100941.34;4991890;28;4279;-71
2023/06/26 06:23:27;;;;;;;;;;;;;;;23.34;67.23;100951.91;4990005;28;4092;-71
2023/06/26 06:25:54;;;;;;;;;;;;;;;23.27;66.73;100947.31;4988926;28;4138;-71
2023/06/26 06:28:20;;;;;;;;;;;;;;;23.35;67.64;100948.34;4991513;28;4099;-70
2023/06/26 06:30:47;;;;;;;;;;;;;;;23.42;66.81;100932.72;4989747;28;4741;-70
2023/06/26 06:33:14;;;;;;;;;;;;;;;23.39;66.04;100934.06;4989602;28;4130;-70
2023/06/26 06:35:40;;;;;;;;;;;;;;;23.20;66.47;100940.59;4987827;28;3979;-70
2023/06/26 06:38:07;;;;;;;;;;;;;;;23.20;66.65;100935.56;4987524;28;4056;-70
2023/06/26 06:40:33;;;;;;;;;;;;;;;23.21;66.73;100942.09;4989226;28;4110;-70
2023/06/26 06:42:59;;;;;;;;;;;;;;;23.29;66.11;100942.34;4989422;28;4222;-70
2023/06/26 06:45:26;;;;;;;;;;;;;;;23.35;65.38;100948.34;4987863;28;4037;-70
2023/06/26 06:47:52;;;;;;;;;;;;;;;23.34;65.95;100938.22;4986894;28;4076;-70
2023/06/26 06:50:19;;;;;;;;;;;;;;;23.59;64.86;100933.28;4987587;28;4235;-69
2023/06/26 06:52:46;;;;;;;;;;;;;;;23.72;63.84;100929.38;4995930;28;4144;-69
2023/06/26 06:55:12;;;;;;;;;;;;;;;23.85;63.82;100929.84;4986119;28;4122;-68
2023/06/26 06:57:39;;;;;;;;;;;;;;;23.93;63.38;100927.94;4990853;28;3937;-69
2023/06/26 07:00:09;;;;;;;;;;;;;;;23.90;64.10;100925.66;4990982;28;4247;-69
2023/06/26 07:02:39;;;;;;;;;;;;;;;23.98;63.31;100931.69;4990649;28;4310;-68
2023/06/26 07:05:06;;;;;;;;;;;;;;;24.09;63.60;100924.81;4988467;28;4228;-69
2023/06/26 07:07:32;;;;;;;;;;;;;;;24.28;62.37;100919.63;4987958;28;4302;-69
2023/06/26 07:09:59;;;;;;;;;;;;;;;24.11;63.01;100924.16;4987948;28;4163;-69
2023/06/26 07:12:26;;;;;;;;;;;;;;;24.10;63.13;100917.63;4987785;28;4225;-69
2023/06/26 07:14:53;;;;;;;;;;;;;;;24.03;63.00;100924.66;4986715;28;4177;-69
2023/06/26 07:17:20;;;;;;;;;;;;;;;24.03;62.92;100915.97;4985998;28;4106;-68
2023/06/26 07:19:47;;;;;;;;;;;;;;;24.27;60.81;100915.25;4984600;28;4105;-70
2023/06/26 07:22:13;;;;;;;;;;;;;;;24.54;60.22;100922.63;4982659;28;4103;-70
2023/06/26 07:24:40;;;;;;;;;;;;;;;24.61;60.58;100919.22;4984660;28;4159;-70
2023/06/26 07:27:06;;;;;;;;;;;;;;;24.58;60.83;100917.69;4980961;28;4335;-72
2023/06/26 07:29:33;;;;;;;;;;;;;;;24.58;59.86;100920.59;4984185;28;4026;-70
2023/06/26 07:31:59;;;;;;;;;;;;;;;24.78;59.90;100911.75;4989455;28;4090;-71
2023/06/26 07:34:26;;;;;;;;;;;;;;;24.69;60.26;100909.28;4991043;28;3937;-72
2023/06/26 07:36:52;;;;;;;;;;;;;;;24.86;58.71;100903.28;4990667;28;4050;-73
2023/06/26 07:39:19;;;;;;;;;;;;;;;24.86;58.76;100903.28;4988188;28;4139;-71
2023/06/26 07:41:49;;;;;;;;;;;;;;;24.83;59.23;100903.91;4987823;28;4041;-71
2023/06/26 07:44:15;;;;;;;;;;;;;;;24.92;59.34;100896.91;4997893;28;4136;-76
2023/06/26 07:46:42;;;;;;;;;;;;;;;24.80;58.75;100897.31;5007282;28;4177;-82
2023/06/26 07:49:08;;;;;;;;;;;;;;;24.79;59.59;100898.03;4992928;28;3889;-79
2023/06/26 07:51:35;;;;;;;;;;;;;;;24.93;59.95;100894.78;4991901;28;4274;-78
2023/06/26 07:54:01;;;;;;;;;;;;;;;24.99;59.14;100901.50;4996466;28;4150;-74
2023/06/26 07:56:28;;;;;;;;;;;;;;;25.00;59.01;100894.25;4991927;28;3899;-76
2023/06/26 07:58:54;;;;;;;;;;;;;;;24.93;58.88;100886.81;4986810;28;4099;-76
2023/06/26 08:01:20;;;;;;;;;;;;;;;25.09;58.78;100890.16;4988278;28;4050;-80
2023/06/26 08:03:47;;;;;;;;;;;;;;;25.04;58.69;100882.78;5000548;28;4093;-79
2023/06/26 08:06:14;;;;;;;;;;;;;;;25.03;58.20;100884.19;4999532;28;4153;-80
2023/06/26 08:08:40;;;;;;;;;;;;;;;25.06;57.99;100877.06;4997254;28;4024;-79
2023/06/26 08:11:07;;;;;;;;;;;;;;;25.06;57.62;100879.97;4997009;28;4167;-75
2023/06/26 08:13:33;;;;;;;;;;;;;;;25.08;57.05;100877.13;5002656;28;4048;-76
2023/06/26 08:16:00;;;;;;;;;;;;;;;25.08;55.62;100877.13;5001612;28;4338;-76
2023/06/26 08:18:26;;;;;;;;;;;;;;;25.21;54.63;100880.34;5000561;28;4238;-75
2023/06/26 08:20:52;;;;;;;;;;;;;;;25.20;54.68;100876.00;4991711;28;4158;-78
2023/06/26 08:23:19;;;;;;;;;;;;;;;25.30;55.32;100879.16;4991190;28;4000;-78
2023/06/26 08:25:46;;;;;;;;;;;;;;;25.26;55.33;100873.25;5000979;28;4112;-85
2023/06/26 08:28:13;;;;;;;;;;;;;;;25.34;54.89;100879.25;5013943;28;4002;-83
2023/06/26 08:30:39;;;;;;;;;;;;;;;25.38;53.46;100867.03;4997761;28;4151;-81
2023/06/26 08:33:11;;;;;;;;;;;;;;;25.53;53.48;100859.44;4995490;28;3954;-86
2023/06/26 08:35:38;;;;;;;;;;;;;;;25.43;53.04;100872.25;5000800;28;3895;-82
2023/06/26 08:38:04;;;;;;;;;;;;;;;25.33;52.99;100871.25;5001161;28;4034;-80
2023/06/26 08:40:31;;;;;;;;;;;;;;;25.30;53.89;100864.66;4998655;28;3945;-82
2023/06/26 08:42:57;;;;;;;;;;;;;;;25.37;52.79;100860.50;5009058;28;4982;-85
2023/06/26 08:45:24;;;;;;;;;;;;;;;25.46;52.78;100862.16;5000426;28;3997;-79
2023/06/26 08:47:51;;;;;;;;;;;;;;;25.42;53.27;100862.06;5005662;28;3891;-80
2023/06/26 08:50:18;;;;;;;;;;;;;;;25.42;53.44;100856.25;5001589;28;4106;-80
2023/06/26 08:52:51;;;;;;;;;;;;;;;25.24;54.48;100861.59;5007955;28;4551;-78
2023/06/26 08:55:18;;;;;;;;;;;;;;;25.39;52.22;100857.66;4997749;28;4446;-76
2023/06/26 08:57:45;;;;;;;;;;;;;;;25.49;52.86;100846.31;4996741;28;4992;-80
2023/06/26 09:00:14;;;;;;;;;;;;;;;25.43;53.33;100846.16;5011879;28;4178;-78
2023/06/26 09:02:41;;;;;;;;;;;;;;;25.55;53.05;100839.94;4995762;28;4296;-81
2023/06/26 09:05:11;;;;;;;;;;;;;;;25.47;52.89;100843.38;4994469;28;4190;-79
2023/06/26 09:07:37;;;;;;;;;;;;;;;25.53;51.46;100844.94;4991427;28;4064;-81
2023/06/26 09:10:04;;;;;;;;;;;;;;;25.65;51.33;100845.97;4996158;28;4145;-74
2023/06/26 09:12:30;;;;;;;;;;;;;;;25.65;50.89;100842.31;5000722;28;4350;-77
2023/06/26 09:14:57;;;;;;;;;;;;;;;25.63;50.69;100836.47;5009215;28;5179;-78
2023/06/26 09:17:24;;;;;;;;;;;;;;;25.69;49.55;100833.72;5002507;28;4184;-81
2023/06/26 09:19:50;;;;;;;;;;;;;;;25.77;49.53;100831.03;4996230;28;4064;-80
2023/06/26 09:22:17;;;;;;;;;;;;;;;25.79;48.99;100836.84;5015972;28;4142;-78
2023/06/26 09:24:43;;;;;;;;;;;;;;;25.89;47.92;100834.25;5006836;28;4043;-86
2023/06/26 09:27:10;;;;;;;;;;;;;;;25.76;47.89;100835.34;5001333;28;4149;-82
2023/06/26 09:29:37;;;;;;;;;;;;;;;25.60;49.73;100823.38;5001807;28;3900;-86
2023/06/26 09:32:03;;;;;;;;;;;;;;;25.60;49.80;100829.16;4995765;28;4140;-82
2023/06/26 09:34:30;;;;;;;;;;;;;;;25.85;49.17;100825.41;5017320;28;4049;-81
2023/06/26 09:36:57;;;;;;;;;;;;;;;25.74;49.46;100820.78;5002597;28;4060;-82
2023/06/26 09:39:23;;;;;;;;;;;;;;;25.59;50.44;100816.09;5006010;28;4055;-87
2023/06/26 09:41:50;;;;;;;;;;;;;;;25.61;50.45;100816.13;5006109;28;4077;-85
2023/06/26 09:44:16;;;;;;;;;;;;;;;25.69;50.51;100814.16;5007244;28;4036;-87
2023/06/26 09:46:44;;;;;;;;;;;;;;;25.74;50.23;100814.25;5007110;28;4897;-84
2023/06/26 09:49:11;;;;;;;;;;;;;;;25.88;50.36;100806.66;5002257;28;4133;-82
2023/06/26 09:51:38;;;;;;;;;;;;;;;25.59;51.00;100810.31;5011051;28;4279;-78
2023/06/26 09:54:05;;;;;;;;;;;;;;;25.35;51.71;100799.56;4993153;28;4488;-74
2023/06/26 09:56:31;;;;;;;;;;;;;;;25.41;52.52;100802.63;4993759;28;4071;-82
2023/06/26 09:59:01;;;;;;;;;;;;;;;25.49;52.44;100794.13;5000354;28;4217;-76
2023/06/26 10:01:27;;;;;;;;;;;;;;;25.54;52.98;100797.13;4990195;28;4406;-76
2023/06/26 10:03:54;;;;;;;;;;;;;;;25.46;53.42;100797.66;4997432;28;4136;-78
2023/06/26 10:06:33;;;;;;;;;;;;;;;25.42;53.89;100792.50;5001410;28;4155;-78
2023/06/26 10:09:00;;;;;;;;;;;;;;;25.25;53.52;100790.63;4991735;28;4017;-73
2023/06/26 10:11:29;;;;;;;;;;;;;;;25.27;53.77;100787.78;4992303;28;3982;-78
2023/06/26 10:13:55;;;;;;;;;;;;;;;25.28;53.84;100783.47;4993385;28;4105;-77
2023/06/26 10:16:41;;;;;;;;;;;;;;;25.40;54.14;100783.75;4992028;28;4051;-80
2023/06/26 10:19:08;;;;;;;;;;;;;;;25.32;54.92;100777.75;5013700;28;4030;-82
2023/06/26 10:21:34;;;;;;;;;;;;;;;25.39;54.67;100776.47;4997043;28;4174;-80
2023/06/26 10:24:02;;;;;;;;;;;;;;;25.48;54.58;100771.63;5002058;28;4051;-82
2023/06/26 10:26:28;;;;;;;;;;;;;;;25.50;54.26;100769.50;5000909;28;4142;-81
2023/06/26 10:28:55;;;;;;;;;;;;;;;25.55;54.47;100769.59;5001833;28;3927;-81
2023/06/26 10:31:22;;;;;;;;;;;;;;;25.49;54.59;100759.34;4993291;28;4051;-79
2023/06/26 10:33:49;;;;;;;;;;;;;;;25.42;54.87;100754.81;4994689;28;4129;-79
2023/06/26 10:36:15;;;;;;;;;;;;;;;25.43;54.76;100758.47;5004819;28;4058;-79
2023/06/26 10:38:58;;;;;;;;;;;;;;;25.42;54.98;100756.97;5001307;28;4508;-78
2023/06/26 10:41:24;;;;;;;;;;;;;;;25.36;55.04;100754.69;4998475;28;3895;-80
2023/06/26 10:44:08;;;;;;;;;;;;;;;25.19;56.88;100747.75;4999902;28;4500;-76
2023/06/26 10:46:50;;;;;;;;;;;;;;;25.13;56.35;100750.47;4996548;28;4111;-77
2023/06/26 10:49:16;;;;;;;;;;;;;;;25.14;56.15;100743.25;4994373;28;3957;-79
2023/06/26 10:51:45;;;;;;;;;;;;;;;25.47;55.98;100733.22;5013332;28;4148;-76
2023/06/26 10:54:13;;;;;;;;;;;;;;;25.50;55.39;100742.69;5002883;28;4086;-74
2023/06/26 10:56:46;;;;;;;;;;;;;;;25.47;55.63;100739.00;4999210;28;4016;-73
2023/06/26 10:59:22;;;;;;;;;;;;;;;25.54;55.46;100736.97;4992479;28;4163;-78
2023/06/26 11:02:01;;;;;;;;;;;;;;;25.46;55.77;100728.09;4993998;28;4098;-82
2023/06/26 11:04:43;;;;;;;;;;;;;;;25.40;55.94;100737.38;5011148;28;4012;-76
2023/06/26 11:07:22;;;;;;;;;;;;;;;25.47;56.39;100730.31;4995175;28;4052;-80
2023/06/26 11:10:01;;;;;;;;;;;;;;;25.39;55.96;100730.09;5009720;28;4328;-74
2023/06/26 11:12:35;;;;;;;;;;;;;;;25.25;56.36;100721.09;4991003;28;3876;-76
2023/06/26 11:15:01;;;;;;;;;;;;;;;25.20;56.61;100713.72;4989969;28;4086;-76
2023/06/26 11:17:28;;;;;;;;;;;;;;;25.36;56.41;100719.91;5005671;28;4075;-78
2023/06/26 11:19:55;;;;;;;;;;;;;;;25.37;56.79;100709.78;5013981;28;4218;-75
2023/06/26 11:22:21;;;;;;;;;;;;;;;25.47;56.57;100707.13;4994492;28;4139;-75
2023/06/26 11:24:49;;;;;;;;;;;;;;;25.46;56.38;100694.03;4989783;28;3952;-79
2023/06/26 11:27:15;;;;;;;;;;;;;;;25.57;55.92;100700.81;5013490;28;4134;-79
2023/06/26 11:29:47;;;;;;;;;;;;;;;25.60;55.97;100710.28;5008385;28;4156;-77
2023/06/26 11:32:13;;;;;;;;;;;;;;;25.60;55.93;100698.69;4979182;28;4042;-78
2023/06/26 11:34:41;;;;;;;;;;;;;;;25.61;55.80;100694.34;4995224;28;4141;-77
2023/06/26 11:37:07;;;;;;;;;;;;;;;25.61;55.88;100697.25;4993183;28;4140;-77
2023/06/26 11:39:34;;;;;;;;;;;;;;;25.58;55.87;100687.75;4992265;28;4083;-82
2023/06/26 11:42:01;;;;;;;;;;;;;;;25.60;56.22;100679.13;4995432;28;4209;-72
2023/06/26 11:44:31;;;;;;;;;;;;;;;25.46;57.06;100676.63;4992304;28;4349;-75
2023/06/26 11:46:58;;;;;;;;;;;;;;;25.70;56.38;100675.69;4989581;28;4149;-75
2023/06/26 11:49:26;;;;;;;;;;;;;;;25.71;56.01;100668.47;4992318;28;4201;-76
2023/06/26 11:51:54;;;;;;;;;;;;;;;25.56;56.78;100660.91;4991621;28;5837;-72
2023/06/26 11:54:25;;;;;;;;;;;;;;;25.36;57.40;100656.13;4989683;28;4217;-75
2023/06/26 11:56:52;;;;;;;;;;;;;;;25.47;56.55;100660.72;4989484;28;3996;-73
2023/06/26 11:59:18;;;;;;;;;;;;;;;25.50;56.93;100653.53;4993486;28;4136;-72
2023/06/26 12:01:45;;;;;;;;;;;;;;;25.63;56.41;100648.75;4995550;28;4193;-74
2023/06/26 12:04:12;;;;;;;;;;;;;;;25.67;56.25;100643.03;4992338;28;4116;-75
2023/06/26 12:06:39;;;;;;;;;;;;;;;25.67;56.23;100640.13;4995734;28;4116;-72
2023/06/26 12:09:07;;;;;;;;;;;;;;;25.66;56.34;100638.66;4991197;28;4216;-75
2023/06/26 12:11:34;;;;;;;;;;;;;;;25.70;56.43;100630.06;5013769;28;4161;-76
2023/06/26 12:14:00;;;;;;;;;;;;;;;25.73;56.41;100627.91;4994648;28;4203;-76
2023/06/26 12:16:30;;;;;;;;;;;;;;;25.81;56.38;100622.28;5015887;28;4185;-79
2023/06/26 12:18:59;;;;;;;;;;;;;;;25.71;56.39;100627.88;4996280;28;4028;-74
2023/06/26 12:21:33;;;;;;;;;;;;;;;25.57;57.58;100619.63;4990783;28;4022;-76
2023/06/26 12:24:00;;;;;;;;;;;;;;;25.52;57.29;100614.41;4998583;28;3975;-73
2023/06/26 12:26:28;;;;;;;;;;;;;;;25.75;56.84;100613.47;4996340;28;4012;-75
2023/06/26 12:29:08;;;;;;;;;;;;;;;25.82;56.39;100612.16;5009330;28;4132;-72
2023/06/26 12:31:34;;;;;;;;;;;;;;;25.79;56.93;100609.91;4994487;28;4195;-80
2023/06/26 12:34:01;;;;;;;;;;;;;;;25.79;56.51;100610.63;5017159;28;4004;-79
2023/06/26 12:36:27;;;;;;;;;;;;;;;25.83;56.45;100607.09;5008539;28;4158;-79
2023/06/26 12:38:54;;;;;;;;;;;;;;;25.69;56.75;100604.63;4995247;28;4345;-76
2023/06/26 12:41:21;;;;;;;;;;;;;;;25.78;57.04;100594.66;5002183;28;3967;-77
2023/06/26 12:43:47;;;;;;;;;;;;;;;25.84;56.53;100591.91;4978378;28;4168;-73
2023/06/26 12:46:13;;;;;;;;;;;;;;;25.82;56.56;100582.44;4995470;28;4203;-72